Aérodrome :
LOGIN :

S'inscrire | Disclaimer

   EN    FR    IT 

 










Légende :    VFR   VFR Marginal   IFR   IFR Intensif   IFR Très Intensif
Visi : 
Plafond : 
>= 8 km
>= 3000ft
5 à 8 km
1000 à 3000 ft
1500m à 5 km
500 à 1000 ft
800 à 1500m
200 à 500 ft
< 800m
< 200 ft
Symboles :   Orages  Brouillard  Fortes neiges  Fortes précipitations  Vent > 20 kt
SIGMETs :   Divers  Orages  Givrage  Turbulence  Onde Orograph.  Cendres Volcan.







- Altitude de l'aérodrome : 3006 ft
- Code IATA : LEN


LELN - Leon

DERNIER METAR :
  • 200900Z 22005KT 9999 FEW025 SCT050 00/M00 Q1014

METARs EXPIRÉS :
  • 200830Z 24004KT 200V290 9999 FEW025 M01/M01 Q1013
  • 200800Z 26005KT 9999 FEW025 SCT034 M01/M01 Q1013
  • 200730Z 25005KT 9999 FEW025 SCT035 M01/M02 Q1013
  • 200700Z 27005KT 9999 FEW025 M00/M00 Q1012
  • 200630Z AUTO 27004KT 9999 FEW039/// SCT046/// 00/M00 Q1012
  • 200600Z AUTO VRB01KT 9999 FEW047 01/01 Q1012

TAF TAF LELN
Valide du 20 à 09h jusqu'au 20 à 18h UTC


200800Z 2009/2018 26005KT 9999 SCT030 BKN045
BECMG 2010/2012 34015KT
PROB40
TEMPO 2012/2017 34015G27KT
PROB30
TEMPO 2009/2018 4000 DZRA BKN012
Pas de NOTAMs connus pour ce terrain.



MET'MAP, la Météo Aéronautique d'un coup d'oeil ! - Copyright ORBIFLY Décembre 2007 - Disclaimer

ORBIFLY MET'MAP TEAM :

Programmation & Développement : Alexandra Zaïnal
Conception & Développement : Baudouin d'Aumeries
Co-Programmation & Développement : Marc-Olivier Méhu
Soutien technique & logistique : Manuel Goepfert

Contact : metmap@orbifly.com




SOURCES & CREDITS :

   NOAA